Time;durP1;ratioP1;P1;durP2;ratioP2;P2;SDS_P1;SDS_P2;PMS_P1;PMS_P2;Temp;Humidity;BMP_temperature;BMP_pressure;BME280_temperature;BME280_humidity;BME280_pressure;Samples;Min_cycle;Max_cycle;Signal;HPM_P1;HPM_P2
2023/01/02 00:00:14;;;;;;;1.90;1.27;;;11.70;90.90;;;;;;5069738;28;20461;-75
2023/01/02 00:02:41;;;;;;;2.30;1.50;;;11.70;99.90;;;;;;5070706;28;20445;-73
2023/01/02 00:05:09;;;;;;;2.00;1.43;;;11.70;99.90;;;;;;5069564;28;20491;-73
2023/01/02 00:07:35;;;;;;;5.90;1.80;;;11.60;99.90;;;;;;5070750;28;20464;-74
2023/01/02 00:10:03;;;;;;;4.93;1.57;;;11.60;99.90;;;;;;5070178;28;20480;-72
2023/01/02 00:12:29;;;;;;;2.57;1.67;;;11.60;1.00;;;;;;5070513;28;20457;-73
2023/01/02 00:14:58;;;;;;;2.90;2.20;;;11.60;1.00;;;;;;5070496;28;20456;-74
2023/01/02 00:17:25;;;;;;;3.03;2.07;;;11.60;1.00;;;;;;5069840;28;21006;-74
2023/01/02 00:19:52;;;;;;;3.27;2.10;;;11.60;1.00;;;;;;5070644;28;20731;-74
2023/01/02 00:22:18;;;;;;;6.43;2.30;;;11.60;1.00;;;;;;5069850;28;21020;-74
2023/01/02 00:24:45;;;;;;;3.30;2.30;;;11.70;1.00;;;;;;5070074;28;20465;-73
2023/01/02 00:27:12;;;;;;;2.87;2.03;;;11.70;1.00;;;;;;5072389;28;20479;-73
2023/01/02 00:29:39;;;;;;;3.63;2.70;;;11.70;1.00;;;;;;5074309;28;20450;-73
2023/01/02 00:32:07;;;;;;;4.77;2.37;;;11.70;99.90;;;;;;5073622;28;20449;-73
2023/01/02 00:34:34;;;;;;;3.30;2.33;;;11.80;99.90;;;;;;5073597;28;20804;-74
2023/01/02 00:37:01;;;;;;;3.30;2.17;;;11.70;99.90;;;;;;5074148;28;20461;-74
2023/01/02 00:39:28;;;;;;;2.67;2.23;;;11.70;1.00;;;;;;5074033;28;20533;-74
2023/01/02 00:41:55;;;;;;;5.80;2.30;;;11.70;1.00;;;;;;5073794;28;20460;-73
2023/01/02 00:44:21;;;;;;;5.70;2.40;;;11.70;1.00;;;;;;5072854;28;20552;-73
2023/01/02 00:46:48;;;;;;;8.40;3.30;;;11.70;1.00;;;;;;5073763;28;20489;-74
2023/01/02 00:49:17;;;;;;;3.73;2.27;;;11.70;99.90;;;;;;5072769;28;20460;-74
2023/01/02 00:51:44;;;;;;;3.43;2.10;;;11.60;1.00;;;;;;5073424;28;20952;-73
2023/01/02 00:54:10;;;;;;;3.20;2.17;;;11.60;1.00;;;;;;5072501;28;20456;-73
2023/01/02 00:56:37;;;;;;;2.70;1.80;;;11.50;1.00;;;;;;5073561;28;20453;-73
2023/01/02 00:59:04;;;;;;;6.83;2.60;;;11.50;1.00;;;;;;5072576;28;20924;-73
2023/01/02 01:01:31;;;;;;;2.63;1.33;;;11.60;1.00;;;;;;5073650;28;20461;-73
2023/01/02 01:04:00;;;;;;;6.13;2.20;;;11.60;1.00;;;;;;5073569;28;20445;-73
2023/01/02 01:06:28;;;;;;;3.10;1.53;;;11.50;99.90;;;;;;5072973;28;20481;-73
2023/01/02 01:08:55;;;;;;;4.23;2.17;;;11.50;99.90;;;;;;5073020;28;20485;-73
2023/01/02 01:11:22;;;;;;;3.73;2.07;;;11.50;1.00;;;;;;5072188;28;20468;-73
2023/01/02 01:13:48;;;;;;;3.23;2.30;;;11.50;1.00;;;;;;5073032;28;20454;-74
2023/01/02 01:16:17;;;;;;;3.40;1.90;;;11.40;99.90;;;;;;5072219;28;20454;-74
2023/01/02 01:18:45;;;;;;;3.13;2.03;;;11.50;99.90;;;;;;5073185;28;20453;-73
2023/01/02 01:21:14;;;;;;;3.60;1.80;;;11.50;99.90;;;;;;5072489;28;20802;-73
2023/01/02 01:23:43;;;;;;;2.83;2.00;;;11.50;1.00;;;;;;5072970;28;20465;-74
2023/01/02 01:26:12;;;;;;;3.83;2.13;;;11.50;1.00;;;;;;5071844;28;20530;-73
2023/01/02 01:28:39;;;;;;;3.00;1.97;;;11.40;99.90;;;;;;5072785;28;20801;-74
2023/01/02 01:31:08;;;;;;;2.37;1.70;;;11.40;1.00;;;;;;5071925;28;20457;-73
2023/01/02 01:33:35;;;;;;;2.63;1.90;;;11.40;99.90;;;;;;5072874;28;20453;-73
2023/01/02 01:36:02;;;;;;;3.23;1.87;;;11.40;99.90;;;;;;5071713;28;20449;-72
2023/01/02 01:38:30;;;;;;;3.07;2.17;;;11.30;20.80;;;;;;5071988;28;20454;-74
2023/01/02 01:40:58;;;;;;;4.53;2.03;;;11.30;1.00;;;;;;5072380;28;20456;-73
2023/01/02 01:43:43;;;;;;;2.63;1.50;;;11.30;99.90;;;;;;5072048;28;20453;-74
2023/01/02 01:46:24;;;;;;;3.33;2.10;;;11.30;99.90;;;;;;5071537;28;20481;-73
2023/01/02 01:48:58;;;;;;;3.57;1.93;;;11.40;99.90;;;;;;5072293;28;20959;-73
2023/01/02 01:51:27;;;;;;;7.27;2.40;;;11.30;99.90;;;;;;5071655;28;20503;-74
2023/01/02 01:54:01;;;;;;;2.90;1.53;;;11.30;1.00;;;;;;5072163;28;20452;-74
2023/01/02 01:56:29;;;;;;;3.73;2.10;;;11.30;1.00;;;;;;5072196;28;20945;-73
2023/01/02 01:58:56;;;;;;;2.80;2.20;;;11.20;1.00;;;;;;5072647;28;20456;-73
2023/01/02 02:01:23;;;;;;;4.83;2.30;;;11.20;99.90;;;;;;5071627;28;20726;-73
2023/01/02 02:03:50;;;;;;;5.43;3.40;;;11.20;1.00;;;;;;5071948;28;20454;-74
2023/01/02 02:06:19;;;;;;;5.90;2.03;;;11.30;1.00;;;;;;5071321;28;20477;-74
2023/01/02 02:08:51;;;;;;;2.47;1.70;;;11.30;1.00;;;;;;5071847;28;21019;-73
2023/01/02 02:11:18;;;;;;;3.40;2.73;;;11.30;1.00;;;;;;5071490;28;20464;-74
2023/01/02 02:13:48;;;;;;;5.40;2.30;;;11.30;1.00;;;;;;5071993;28;20461;-74
2023/01/02 02:16:25;;;;;;;2.27;1.67;;;11.20;2.40;;;;;;5071032;28;20888;-74
2023/01/02 02:19:07;;;;;;;2.40;2.20;;;11.30;99.90;;;;;;5071941;28;20456;-73
2023/01/02 02:21:52;;;;;;;6.13;2.73;;;11.30;99.90;;;;;;5071572;28;20452;-74
2023/01/02 02:24:43;;;;;;;3.70;2.43;;;11.30;87.90;;;;;;5071078;28;20445;-73
2023/01/02 02:27:24;;;;;;;3.23;1.90;;;11.30;62.20;;;;;;5070920;28;20466;-73
2023/01/02 02:30:12;;;;;;;4.33;2.03;;;11.40;12.70;;;;;;5071903;28;20450;-74
2023/01/02 02:32:56;;;;;;;3.03;2.00;;;11.40;1.00;;;;;;5071683;28;20809;-73
2023/01/02 02:35:34;;;;;;;4.10;2.60;;;11.30;1.00;;;;;;5071006;28;20450;-73
2023/01/02 02:38:07;;;;;;;3.10;2.80;;;11.50;1.00;;;;;;5071508;28;20457;-74
2023/01/02 02:40:47;;;;;;;3.00;2.27;;;11.50;1.00;;;;;;5071348;28;20453;-73
2023/01/02 02:43:21;;;;;;;2.30;1.60;;;11.60;1.00;;;;;;5071113;28;20445;-74
2023/01/02 02:46:00;;;;;;;3.60;2.53;;;11.50;1.00;;;;;;5070648;28;20444;-73
2023/01/02 02:48:33;;;;;;;3.50;1.90;;;11.50;99.90;;;;;;5071724;28;20792;-73
2023/01/02 02:51:06;;;;;;;3.30;2.43;;;11.50;1.00;;;;;;5070783;28;20952;-74
2023/01/02 02:53:40;;;;;;;3.07;2.33;;;11.40;7.80;;;;;;5071386;28;20452;-73
2023/01/02 02:56:09;;;;;;;2.83;1.90;;;11.40;1.00;;;;;;5070443;28;20442;-73
2023/01/02 02:58:38;;;;;;;3.30;2.00;;;11.40;99.90;;;;;;5071242;28;20825;-73
2023/01/02 03:01:08;;;;;;;4.20;2.10;;;11.30;1.00;;;;;;5070720;28;20450;-73
2023/01/02 03:03:35;;;;;;;2.40;1.93;;;11.20;1.00;;;;;;5071028;28;20453;-74
2023/01/02 03:06:14;;;;;;;3.57;2.03;;;11.30;99.90;;;;;;5070135;28;20456;-71
2023/01/02 03:08:45;;;;;;;2.57;2.30;;;11.20;1.00;;;;;;5071054;28;20480;-73
2023/01/02 03:11:12;;;;;;;3.60;2.27;;;11.30;1.00;;;;;;5070320;28;20441;-73
2023/01/02 03:13:47;;;;;;;3.80;2.10;;;11.20;1.00;;;;;;5071252;28;20783;-74
2023/01/02 03:16:20;;;;;;;1.67;1.57;;;11.20;99.90;;;;;;5070216;28;20453;-73
2023/01/02 03:18:54;;;;;;;1.87;1.50;;;11.10;99.90;;;;;;5071270;28;20457;-73
2023/01/02 03:21:33;;;;;;;3.33;2.23;;;11.10;1.00;;;;;;5070597;28;20705;-74
2023/01/02 03:24:06;;;;;;;2.83;1.60;;;11.10;1.00;;;;;;5070994;28;20441;-74
2023/01/02 03:26:34;;;;;;;4.30;1.83;;;11.20;1.00;;;;;;5070496;28;20472;-74
2023/01/02 03:29:08;;;;;;;2.67;2.07;;;11.20;91.10;;;;;;5070591;28;20446;-72
2023/01/02 03:31:40;;;;;;;7.90;2.13;;;11.30;99.90;;;;;;5057968;28;21006;-73
2023/01/02 03:34:12;;;;;;;3.00;1.80;;;11.30;99.90;;;;;;5070124;28;20472;-73
2023/01/02 03:36:41;;;;;;;1.53;1.37;;;11.40;99.90;;;;;;5070595;28;20959;-74
2023/01/02 03:39:12;;;;;;;7.80;2.33;;;11.30;34.60;;;;;;5070288;28;20448;-73
2023/01/02 03:41:42;;;;;;;2.80;1.20;;;11.30;99.90;;;;;;5070790;28;20519;-74
2023/01/02 03:44:12;;;;;;;3.13;2.40;;;11.30;1.00;;;;;;5070011;28;20449;-73
2023/01/02 03:46:47;;;;;;;1.47;1.20;;;11.30;1.00;;;;;;5070590;28;20847;-73
2023/01/02 03:49:21;;;;;;;1.40;1.20;;;11.50;99.90;;;;;;5070251;28;20452;-73
2023/01/02 03:51:48;;;;;;;2.37;1.40;;;11.40;99.90;;;;;;5070678;28;20940;-74
2023/01/02 03:54:16;;;;;;;2.33;1.70;;;11.40;99.90;;;;;;5069446;28;20623;-73
2023/01/02 03:56:53;;;;;;;2.00;1.27;;;11.30;1.00;;;;;;5070231;28;20458;-73
2023/01/02 03:59:38;;;;;;;2.50;1.07;;;11.30;99.90;;;;;;5069795;28;20444;-73
2023/01/02 04:02:12;;;;;;;7.13;2.20;;;11.20;1.00;;;;;;5072487;28;20926;-73
2023/01/02 04:04:45;;;;;;;1.60;1.20;;;11.30;1.00;;;;;;5074356;28;20442;-73
2023/01/02 04:07:18;;;;;;;1.73;1.20;;;11.30;1.00;;;;;;5073859;28;20505;-74
2023/01/02 04:09:47;;;;;;;1.60;1.40;;;11.30;99.90;;;;;;5074541;28;20798;-74
2023/01/02 04:12:19;;;;;;;1.80;1.17;;;11.30;1.00;;;;;;5060901;28;20442;-73
2023/01/02 04:14:49;;;;;;;1.90;1.17;;;11.20;49.40;;;;;;5073965;28;20453;-73
2023/01/02 04:17:22;;;;;;;2.53;1.10;;;11.20;1.00;;;;;;5073515;28;20931;-73
2023/01/02 04:19:52;;;;;;;1.40;1.20;;;11.20;1.00;;;;;;5074300;28;20457;-74
2023/01/02 04:22:23;;;;;;;1.20;1.10;;;11.20;1.00;;;;;;5073610;28;20449;-73
2023/01/02 04:25:01;;;;;;;1.97;1.30;;;11.20;1.00;;;;;;5073798;28;20438;-73
2023/01/02 04:27:32;;;;;;;1.63;1.07;;;11.20;1.00;;;;;;5073849;28;20469;-73
2023/01/02 04:29:59;;;;;;;1.50;1.40;;;11.20;1.00;;;;;;5061489;28;20449;-74
2023/01/02 04:32:31;;;;;;;2.10;1.67;;;11.10;1.00;;;;;;5073135;28;20460;-73
2023/01/02 04:35:00;;;;;;;0.93;0.83;;;11.10;1.00;;;;;;5073847;28;20434;-74
2023/01/02 04:37:29;;;;;;;3.63;1.57;;;11.10;99.90;;;;;;5074074;28;20454;-73
2023/01/02 04:39:59;;;;;;;1.57;1.43;;;11.00;99.90;;;;;;5073897;28;20944;-74
2023/01/02 04:42:26;;;;;;;2.67;2.00;;;11.30;1.00;;;;;;5073424;28;20441;-74
2023/01/02 04:44:53;;;;;;;1.20;1.10;;;11.10;1.00;;;;;;5073458;28;20853;-74
2023/01/02 04:47:19;;;;;;;2.00;1.17;;;11.00;17.90;;;;;;5073079;28;20488;-74
2023/01/02 04:49:47;;;;;;;1.93;1.23;;;11.00;1.00;;;;;;5073760;28;20457;-74
2023/01/02 04:52:14;;;;;;;1.63;1.37;;;11.10;1.00;;;;;;5073155;28;20442;-73
2023/01/02 04:54:41;;;;;;;2.70;1.27;;;11.00;99.90;;;;;;5073320;28;20445;-73
2023/01/02 04:57:08;;;;;;;3.50;1.60;;;11.00;99.90;;;;;;5072876;28;20453;-73
2023/01/02 04:59:35;;;;;;;3.83;1.40;;;11.00;19.60;;;;;;5073664;28;20801;-73
2023/01/02 05:02:02;;;;;;;3.03;2.83;;;11.10;1.00;;;;;;5073171;28;20457;-71
2023/01/02 05:04:28;;;;;;;3.17;0.93;;;11.10;99.90;;;;;;5072886;28;20461;-74
2023/01/02 05:06:57;;;;;;;6.60;1.20;;;11.10;1.00;;;;;;5072988;28;20501;-73
2023/01/02 05:09:23;;;;;;;2.30;1.10;;;11.10;1.00;;;;;;5072699;28;20977;-73
2023/01/02 05:11:51;;;;;;;4.03;2.20;;;11.10;1.00;;;;;;5072997;28;20568;-74
2023/01/02 05:14:18;;;;;;;1.40;1.00;;;11.20;99.90;;;;;;5071582;28;20446;-73
2023/01/02 05:16:45;;;;;;;4.50;1.47;;;11.30;1.00;;;;;;5073192;28;20457;-74
2023/01/02 05:19:12;;;;;;;2.80;0.90;;;11.40;99.90;;;;;;5072387;28;20449;-73
2023/01/02 05:24:25;;;;;;;1.80;0.83;;;11.50;99.90;;;;;;5071924;28;20940;-73
2023/01/02 05:26:52;;;;;;;2.20;1.03;;;11.60;99.90;;;;;;5072549;28;20929;-74
2023/01/02 05:29:19;;;;;;;1.97;0.90;;;11.70;92.80;;;;;;5072402;28;20446;-73
2023/01/02 05:31:46;;;;;;;1.43;1.17;;;11.90;1.00;;;;;;5073035;28;20454;-74
2023/01/02 05:34:14;;;;;;;2.10;1.63;;;11.90;1.00;;;;;;5071689;28;20542;-74
2023/01/02 05:36:41;;;;;;;4.17;1.00;;;11.80;1.00;;;;;;5072849;28;20787;-73
2023/01/02 05:39:08;;;;;;;1.67;0.97;;;11.80;1.00;;;;;;5071997;28;20469;-73
2023/01/02 05:41:38;;;;;;;1.70;1.20;;;11.70;1.00;;;;;;5072340;28;20450;-74
2023/01/02 05:44:07;;;;;;;1.40;0.83;;;11.90;1.00;;;;;;5071656;28;20446;-73
2023/01/02 05:46:35;;;;;;;1.43;0.80;;;11.80;1.00;;;;;;5072369;28;20933;-74
2023/01/02 05:49:04;;;;;;;1.77;0.90;;;11.90;1.00;;;;;;5072304;28;20489;-72
2023/01/02 05:51:30;;;;;;;0.80;0.70;;;11.90;1.00;;;;;;5072435;28;20465;-74
2023/01/02 05:53:57;;;;;;;1.43;0.93;;;12.10;1.00;;;;;;5072269;28;20813;-74
2023/01/02 05:56:26;;;;;;;1.10;0.80;;;12.10;1.00;;;;;;5071880;28;20446;-73
2023/01/02 05:58:54;;;;;;;2.60;1.30;;;12.40;1.00;;;;;;5072075;28;20469;-74
2023/01/02 06:01:23;;;;;;;1.67;1.10;;;12.40;1.00;;;;;;5071635;28;20928;-74
2023/01/02 06:03:51;;;;;;;0.90;0.70;;;12.60;99.90;;;;;;5072116;28;20445;-74
2023/01/02 06:06:21;;;;;;;1.03;0.77;;;12.90;99.90;;;;;;5072023;28;20449;-74
2023/01/02 06:08:48;;;;;;;1.23;0.90;;;12.90;99.90;;;;;;5071883;28;20528;-74
2023/01/02 06:11:15;;;;;;;2.00;1.13;;;12.80;99.90;;;;;;5071950;28;20442;-74
2023/01/02 06:13:41;;;;;;;1.70;1.57;;;13.00;99.90;;;;;;5071910;28;20446;-73
2023/01/02 06:16:10;;;;;;;1.57;1.00;;;13.10;99.90;;;;;;5071874;28;20478;-74
2023/01/02 06:18:38;;;;;;;1.23;0.80;;;13.10;99.90;;;;;;5072159;28;20460;-74
2023/01/02 06:21:07;;;;;;;3.13;1.67;;;13.00;99.90;;;;;;5071728;28;20450;-74
2023/01/02 06:23:34;;;;;;;2.37;0.90;;;13.10;99.90;;;;;;5071719;28;20449;-73
2023/01/02 06:26:03;;;;;;;1.50;1.13;;;13.10;99.90;;;;;;5072175;28;20452;-73
2023/01/02 06:28:30;;;;;;;1.77;1.20;;;13.10;99.90;;;;;;5071940;28;20482;-74
2023/01/02 06:31:00;;;;;;;3.63;1.53;;;13.20;99.90;;;;;;5072479;28;20454;-74
2023/01/02 06:33:29;;;;;;;2.03;1.20;;;13.30;99.90;;;;;;5072241;28;20476;-74
2023/01/02 06:35:59;;;;;;;1.50;1.03;;;13.40;99.90;;;;;;5071889;28;20446;-74
2023/01/02 06:38:27;;;;;;;1.80;1.00;;;13.30;99.90;;;;;;5071938;28;20484;-74
2023/01/02 06:40:55;;;;;;;1.57;1.10;;;13.40;99.90;;;;;;5071715;28;20450;-74
2023/01/02 06:43:22;;;;;;;1.73;1.00;;;13.40;99.90;;;;;;5071157;28;20450;-74
2023/01/02 06:45:50;;;;;;;1.97;1.07;;;13.30;99.90;;;;;;5071041;28;20450;-74
2023/01/02 06:48:17;;;;;;;1.63;1.27;;;13.30;99.90;;;;;;5070859;28;20482;-74
2023/01/02 06:50:45;;;;;;;5.73;1.23;;;13.40;99.90;;;;;;5071382;28;20449;-74
2023/01/02 06:53:13;;;;;;;1.40;1.07;;;13.40;99.90;;;;;;5071246;28;20775;-74
2023/01/02 06:55:40;;;;;;;3.10;1.87;;;13.40;99.90;;;;;;5070993;28;20449;-73
2023/01/02 06:58:06;;;;;;;3.37;1.10;;;13.40;99.90;;;;;;5071009;28;20461;-73
2023/01/02 07:00:33;;;;;;;2.60;1.00;;;13.40;99.90;;;;;;5071588;28;20805;-73
2023/01/02 07:03:00;;;;;;;2.03;0.90;;;13.40;99.90;;;;;;5071836;28;20560;-74
2023/01/02 07:05:27;;;;;;;3.60;1.30;;;13.40;99.90;;;;;;5071269;28;20674;-74
2023/01/02 07:07:55;;;;;;;2.50;1.10;;;13.50;99.90;;;;;;5071182;28;20508;-74
2023/01/02 07:10:22;;;;;;;3.73;1.10;;;13.50;99.90;;;;;;5071091;28;20481;-74
2023/01/02 07:12:49;;;;;;;2.80;1.00;;;13.40;99.90;;;;;;5071406;28;20453;-74
2023/01/02 07:15:16;;;;;;;1.27;0.93;;;13.40;99.90;;;;;;5070220;28;20456;-74
2023/01/02 07:17:42;;;;;;;7.60;1.40;;;13.40;99.90;;;;;;5071450;28;20453;-74
2023/01/02 07:20:10;;;;;;;1.80;1.10;;;13.20;99.90;;;;;;5070711;28;20449;-74
2023/01/02 07:22:38;;;;;;;2.60;1.33;;;13.10;99.90;;;;;;5071485;28;20450;-74
2023/01/02 07:25:07;;;;;;;2.87;1.47;;;13.00;99.90;;;;;;5070364;28;20457;-73
2023/01/02 07:27:34;;;;;;;4.27;1.43;;;12.90;99.90;;;;;;5071066;28;20481;-74
2023/01/02 07:30:02;;;;;;;3.77;1.80;;;12.90;99.90;;;;;;5071038;28;20463;-72
2023/01/02 07:32:28;;;;;;;1.33;0.80;;;12.90;99.90;;;;;;5071033;28;20994;-73
2023/01/02 07:34:55;;;;;;;1.33;1.00;;;12.90;99.90;;;;;;5070500;28;20956;-74
2023/01/02 07:37:22;;;;;;;3.10;1.27;;;12.90;99.90;;;;;;5070012;28;20483;-74
2023/01/02 07:39:49;;;;;;;3.10;1.03;;;12.90;99.90;;;;;;5070842;28;20449;-74
2023/01/02 07:42:17;;;;;;;2.20;0.97;;;12.80;99.90;;;;;;5070473;28;20449;-75
2023/01/02 07:44:43;;;;;;;2.37;1.40;;;12.60;99.90;;;;;;5070691;28;20452;-74
2023/01/02 07:47:10;;;;;;;1.57;1.27;;;12.50;99.90;;;;;;5070128;28;20445;-74
2023/01/02 07:49:37;;;;;;;3.67;1.63;;;12.40;99.90;;;;;;5070934;28;20864;-74
2023/01/02 07:52:04;;;;;;;4.67;0.97;;;12.40;99.90;;;;;;5070436;28;20446;-73
2023/01/02 07:54:31;;;;;;;5.67;1.87;;;12.30;99.90;;;;;;5070483;28;20449;-74
2023/01/02 07:56:57;;;;;;;2.50;2.00;;;12.30;99.90;;;;;;5070716;28;20450;-74
2023/01/02 07:59:26;;;;;;;3.40;1.33;;;12.30;99.90;;;;;;5070246;28;20453;-74
2023/01/02 08:01:52;;;;;;;1.97;1.17;;;12.30;99.90;;;;;;5070556;28;20456;-74
2023/01/02 08:04:19;;;;;;;1.40;1.13;;;12.40;99.90;;;;;;5069663;28;20456;-74
2023/01/02 08:06:46;;;;;;;2.87;1.07;;;12.40;99.90;;;;;;5070800;28;20824;-74
2023/01/02 08:09:13;;;;;;;1.73;0.90;;;12.40;99.90;;;;;;5070013;28;20862;-74
2023/01/02 08:11:39;;;;;;;3.93;1.53;;;12.40;99.90;;;;;;5070805;28;20457;-73
2023/01/02 08:14:06;;;;;;;2.70;1.30;;;12.40;99.90;;;;;;5069965;28;20441;-74
2023/01/02 08:16:35;;;;;;;2.07;1.30;;;12.40;99.90;;;;;;5070537;28;20446;-74
2023/01/02 08:19:02;;;;;;;2.93;2.00;;;12.40;99.90;;;;;;5070342;28;20537;-72
2023/01/02 08:21:28;;;;;;;1.97;1.30;;;12.30;99.90;;;;;;5070932;28;20441;-74
2023/01/02 08:23:55;;;;;;;1.77;1.13;;;12.40;99.90;;;;;;5070408;28;20454;-74
2023/01/02 08:26:22;;;;;;;5.53;1.63;;;12.50;99.90;;;;;;5069902;28;20465;-73
2023/01/02 08:28:49;;;;;;;7.33;1.93;;;12.60;99.90;;;;;;5070707;28;20477;-74
2023/01/02 08:31:19;;;;;;;3.43;1.27;;;12.60;99.90;;;;;;5069912;28;20446;-74
2023/01/02 08:33:47;;;;;;;3.00;1.17;;;12.70;99.90;;;;;;5070003;28;20461;-74
2023/01/02 08:36:14;;;;;;;5.43;1.47;;;12.90;99.90;;;;;;5070060;28;20782;-74
2023/01/02 08:38:41;;;;;;;3.00;2.00;;;13.10;99.90;;;;;;5071035;28;20449;-73
2023/01/02 08:41:08;;;;;;;1.90;1.33;;;12.90;99.90;;;;;;5070152;28;20457;-73
2023/01/02 08:43:36;;;;;;;2.27;1.37;;;12.90;99.90;;;;;;5070499;28;20449;-74
2023/01/02 08:46:04;;;;;;;4.30;1.43;;;12.90;99.90;;;;;;5069901;28;20446;-73
2023/01/02 08:48:30;;;;;;;3.90;0.90;;;13.00;99.90;;;;;;5072142;28;20489;-75
2023/01/02 08:50:59;;;;;;;3.03;1.30;;;13.00;99.90;;;;;;5073780;28;20453;-74
2023/01/02 08:53:25;;;;;;;2.90;1.83;;;13.10;99.90;;;;;;5072952;28;20456;-74
2023/01/02 08:55:52;;;;;;;2.27;1.30;;;13.20;99.90;;;;;;5073888;28;20465;-74
2023/01/02 08:58:19;;;;;;;4.37;1.70;;;13.20;99.90;;;;;;5073405;28;20473;-74
2023/01/02 09:00:46;;;;;;;2.37;1.10;;;13.20;99.90;;;;;;5060659;28;20450;-74
2023/01/02 09:03:13;;;;;;;3.90;1.47;;;13.30;99.90;;;;;;5073409;28;20453;-74
2023/01/02 09:05:39;;;;;;;2.77;1.30;;;13.30;99.90;;;;;;5060443;28;20461;-74
2023/01/02 09:08:07;;;;;;;1.53;1.43;;;13.30;99.90;;;;;;5073116;28;20488;-73
2023/01/02 09:10:34;;;;;;;2.80;1.23;;;13.40;99.90;;;;;;5060080;28;20473;-74
2023/01/02 09:13:01;;;;;;;3.90;1.93;;;13.30;99.90;;;;;;5073299;28;20830;-72
2023/01/02 09:15:30;;;;;;;2.73;1.33;;;13.30;99.90;;;;;;5073470;28;20453;-74
2023/01/02 09:17:57;;;;;;;2.27;1.20;;;13.20;99.90;;;;;;5073573;28;20450;-74
2023/01/02 09:20:24;;;;;;;2.20;1.03;;;13.20;99.90;;;;;;5073092;28;20806;-74
2023/01/02 09:22:50;;;;;;;1.50;1.10;;;13.30;99.90;;;;;;5073078;28;20457;-74
2023/01/02 09:25:18;;;;;;;4.37;1.40;;;13.30;99.90;;;;;;5072641;28;20812;-74
2023/01/02 09:27:45;;;;;;;3.13;1.60;;;13.30;99.90;;;;;;5073295;28;20446;-74
2023/01/02 09:30:13;;;;;;;1.13;1.00;;;13.30;99.90;;;;;;5072806;28;20500;-74
2023/01/02 09:32:39;;;;;;;2.70;1.63;;;13.20;99.90;;;;;;5073151;28;20450;-74
2023/01/02 09:35:07;;;;;;;3.43;1.40;;;13.30;99.90;;;;;;5072539;28;20441;-74
2023/01/02 09:37:34;;;;;;;2.03;1.43;;;13.30;99.90;;;;;;5073014;28;20940;-74
2023/01/02 09:40:01;;;;;;;4.37;2.03;;;13.20;99.90;;;;;;5073386;28;20458;-74
2023/01/02 09:42:30;;;;;;;9.73;1.60;;;13.20;99.90;;;;;;5073175;28;20453;-73
2023/01/02 09:45:02;;;;;;;2.67;1.90;;;13.30;99.90;;;;;;5072926;28;20445;-74
2023/01/02 09:47:29;;;;;;;3.33;1.10;;;13.40;99.90;;;;;;5073174;28;20824;-74
2023/01/02 09:50:00;;;;;;;2.80;1.27;;;13.40;99.90;;;;;;5072921;28;20511;-74
2023/01/02 09:52:29;;;;;;;2.63;1.13;;;13.70;99.90;;;;;;5073060;28;20449;-74
2023/01/02 09:54:56;;;;;;;1.87;1.20;;;13.70;99.90;;;;;;5072741;28;20445;-74
2023/01/02 09:57:36;;;;;;;7.27;2.10;;;13.70;99.90;;;;;;5072180;28;20450;-74
2023/01/02 10:00:08;;;;;;;2.20;1.20;;;13.80;99.90;;;;;;5071477;28;20445;-73
2023/01/02 10:02:50;;;;;;;2.00;1.33;;;14.00;99.90;;;;;;5072933;28;20437;-74
2023/01/02 10:05:37;;;;;;;1.53;1.10;;;14.00;99.90;;;;;;5071537;28;20958;-74
2023/01/02 10:08:13;;;;;;;2.73;1.10;;;14.10;99.90;;;;;;5072147;28;20492;-74
2023/01/02 10:10:42;;;;;;;1.73;1.20;;;14.10;99.90;;;;;;5060308;28;20437;-74
2023/01/02 10:13:17;;;;;;;2.03;1.23;;;14.20;99.90;;;;;;5071606;28;20446;-73
2023/01/02 10:15:46;;;;;;;1.60;1.00;;;14.30;99.90;;;;;;5072582;28;20464;-74
2023/01/02 10:18:20;;;;;;;1.93;1.13;;;14.40;99.90;;;;;;5071858;28;20449;-74
2023/01/02 10:20:53;;;;;;;2.83;1.10;;;14.50;99.90;;;;;;5072454;28;20430;-74
2023/01/02 10:23:23;;;;;;;2.03;1.20;;;14.70;99.90;;;;;;5071393;28;20446;-74
2023/01/02 10:25:54;;;;;;;2.20;1.10;;;14.80;99.90;;;;;;5072454;28;20442;-74
2023/01/02 10:28:32;;;;;;;2.63;1.30;;;14.80;99.90;;;;;;5058706;28;20457;-74
2023/01/02 10:31:03;;;;;;;2.70;1.00;;;14.90;99.90;;;;;;5072493;28;20458;-75
2023/01/02 10:33:35;;;;;;;1.30;0.93;;;15.00;99.90;;;;;;5072090;28;20437;-74
2023/01/02 10:36:03;;;;;;;1.47;1.10;;;15.10;99.90;;;;;;5071183;28;20452;-74
2023/01/02 10:38:35;;;;;;;3.73;1.20;;;15.10;99.90;;;;;;5071755;28;20461;-74
2023/01/02 10:41:02;;;;;;;1.33;0.80;;;15.20;99.90;;;;;;5071597;28;20452;-72
2023/01/02 10:43:33;;;;;;;3.57;0.90;;;15.20;99.90;;;;;;5071839;28;20457;-74
2023/01/02 10:46:02;;;;;;;3.90;1.30;;;15.30;99.90;;;;;;5072192;28;20900;-74
2023/01/02 10:48:33;;;;;;;3.80;1.13;;;15.40;99.90;;;;;;5072436;28;20452;-74
2023/01/02 10:51:03;;;;;;;2.50;1.57;;;15.40;99.90;;;;;;5074311;28;20450;-74
2023/01/02 10:53:32;;;;;;;3.20;1.10;;;15.50;99.90;;;;;;5075319;28;20449;-73
2023/01/02 10:56:02;;;;;;;2.60;1.20;;;15.60;99.90;;;;;;5083472;28;20477;-74
2023/01/02 10:58:33;;;;;;;3.47;1.30;;;15.70;98.60;;;;;;5082965;28;20454;-74
2023/01/02 11:01:06;;;;;;;1.47;0.93;;;15.70;95.50;;;;;;5079348;28;20475;-74
2023/01/02 11:03:33;;;;;;;4.23;1.27;;;15.70;95.40;;;;;;5077377;28;20452;-73
2023/01/02 11:06:00;;;;;;;3.70;1.20;;;15.80;92.70;;;;;;5073879;28;20449;-74
2023/01/02 11:08:36;;;;;;;1.43;0.80;;;15.80;92.60;;;;;;5071930;28;20552;-74
2023/01/02 11:11:13;;;;;;;4.00;1.07;;;15.90;91.00;;;;;;5070111;28;20441;-73
2023/01/02 11:13:47;;;;;;;1.53;1.17;;;16.00;89.20;;;;;;5071087;28;20441;-74
2023/01/02 11:16:16;;;;;;;2.10;1.90;;;16.10;86.40;;;;;;5070632;28;20452;-73
2023/01/02 11:18:51;;;;;;;2.40;1.00;;;16.20;83.00;;;;;;5071549;28;20445;-74
2023/01/02 11:21:27;;;;;;;2.00;1.33;;;16.30;80.90;;;;;;5070884;28;20449;-74
2023/01/02 11:23:59;;;;;;;1.90;1.13;;;16.40;77.80;;;;;;5071119;28;20452;-74
2023/01/02 11:26:27;;;;;;;2.30;0.80;;;;;;;;;;5070865;28;20434;-74
2023/01/02 11:28:56;;;;;;;1.60;1.50;;;;;;;;;;5071097;28;20481;-75
2023/01/02 11:31:24;;;;;;;2.60;1.07;;;;;;;;;;5070582;28;20446;-74
2023/01/02 11:33:51;;;;;;;2.80;1.30;;;;;;;;;;5070598;28;20446;-74
2023/01/02 11:36:19;;;;;;;3.23;0.93;;;;;;;;;;5070478;28;20445;-73
2023/01/02 11:38:47;;;;;;;2.70;1.20;;;;;;;;;;5070808;28;20460;-74
2023/01/02 11:44:15;;;;;;;1.93;0.90;;;;;;;;;;5069484;28;20521;-74
2023/01/02 11:46:42;;;;;;;4.93;1.03;;;;;;;;;;5070826;28;20445;-74
2023/01/02 11:49:14;;;;;;;1.57;1.47;;;;;;;;;;5070145;28;20512;-74
2023/01/02 11:51:41;;;;;;;1.30;0.90;;;;;;;;;;5071227;28;20452;-73
2023/01/02 11:54:13;;;;;;;1.30;1.17;;;;;;;;;;5070186;28;20453;-75
2023/01/02 11:56:41;;;;;;;5.17;1.57;;;;;;;;;;5070881;28;20929;-74
2023/01/02 11:59:14;;;;;;;1.77;1.37;;;;;;;;;;5070457;28;20446;-74
2023/01/02 12:01:47;;;;;;;2.97;1.30;;;;;;;;;;5071109;28;20450;-74
2023/01/02 12:04:14;;;;;;;3.63;1.13;;;;;;;;;;5070132;28;20469;-74
2023/01/02 12:06:50;;;;;;;3.53;1.17;;;;;;;;;;5070796;28;20499;-75
2023/01/02 12:09:23;;;;;;;1.50;1.10;;;;;;;;;;5070315;28;20500;-74
2023/01/02 12:11:59;;;;;;;4.17;1.47;;;;;;;;;;5070945;28;20528;-75
2023/01/02 12:14:34;;;;;;;2.63;0.93;;;;;;;;;;5070073;28;20434;-75
2023/01/02 12:17:05;;;;;;;1.87;1.47;;;;;;;;;;5070969;28;20804;-74
2023/01/02 12:19:48;;;;;;;6.90;1.50;;;;;;;;;;5070492;28;20449;-74
2023/01/02 12:22:21;;;;;;;1.83;0.90;;;;;;;;;;5071337;28;20441;-75
2023/01/02 12:24:57;;;;;;;3.47;1.13;;;;;;;;;;5073819;28;20441;-74
2023/01/02 12:27:27;;;;;;;3.13;1.33;;;;;;;;;;5073922;28;20445;-74
2023/01/02 12:30:03;;;;;;;4.03;1.33;;;;;;;;;;5073964;28;20496;-75
2023/01/02 12:32:58;;;;;;;1.50;1.20;;;;;;;;;;5074426;28;20519;-75
2023/01/02 12:35:36;;;;;;;5.63;1.40;;;;;;;;;;5073676;28;20453;-74
2023/01/02 12:38:05;;;;;;;2.63;1.00;;;;;;;;;;5073549;28;20456;-74
2023/01/02 12:40:37;;;;;;;1.33;0.80;;;;;;;;;;5073966;28;20507;-74
2023/01/02 12:43:19;;;;;;;3.23;1.10;;;;;;;;;;5073457;28;20453;-74
2023/01/02 12:45:51;;;;;;;4.70;0.90;;;;;;;;;;5065568;28;20821;-74
2023/01/02 12:48:28;;;;;;;2.80;1.23;;;;;;;;;;5073601;28;20528;-74
2023/01/02 12:51:04;;;;;;;4.17;1.50;;;;;;;;;;5074129;28;20472;-75
2023/01/02 12:53:40;;;;;;;3.00;1.00;;;;;;;;;;5073834;28;20453;-74
2023/01/02 12:56:10;;;;;;;3.83;1.47;;;;;;;;;;5073783;28;20464;-74
2023/01/02 12:58:47;;;;;;;5.03;1.50;;;;;;;;;;5073976;28;20434;-75
2023/01/02 13:01:18;;;;;;;2.70;1.23;;;;;;;;;;5073126;28;20448;-74
2023/01/02 13:03:57;;;;;;;5.00;1.40;;;;;;;;;;5073178;28;20442;-75
2023/01/02 13:06:25;;;;;;;12.30;1.70;;;;;;;;;;5073482;28;20499;-75
2023/01/02 13:08:55;;;;;;;2.50;1.37;;;;;;;;;;5060065;28;20483;-75
2023/01/02 13:11:26;;;;;;;6.30;1.60;;;;;;;;;;5072874;28;21208;-74
2023/01/02 13:13:53;;;;;;;1.77;0.93;;;;;;;;;;5073086;28;20932;-75
2023/01/02 13:16:20;;;;;;;4.00;1.07;;;;;;;;;;5073079;28;20462;-74
2023/01/02 13:18:57;;;;;;;4.07;1.40;;;;;;;;;;5073334;28;20473;-74
2023/01/02 13:21:29;;;;;;;2.17;1.17;;;;;;;;;;5072961;28;20820;-74
2023/01/02 13:23:58;;;;;;;1.60;1.50;;;;;;;;;;5073255;28;20464;-74